Weather History for KOTH - April, 2014

Change the Weather History Date:

Saturday, April 19, 2014

  Actual Average Record
Temperature  
Mean Temperature 52 °F 49 °F  
Max Temperature 59 °F 56 °F 84 °F (1918)
Min Temperature 45 °F 43 °F 30 °F (1927)
Degree Days  
Heating Degree Days 13 16  
Month to date heating degree days 268 313  
Since 1 July heating degree days 3501 4025  
Cooling Degree Days 0 0  
Month to date cooling degree days 0 0  
Year to date cooling degree days 0 0  
Growing Degree Days 2 (Base 50)    
Moisture  
Dew Point 48 °F    
Average Humidity 90    
Maximum Humidity 100    
Minimum Humidity 67    
Precipitation  
Precipitation 0.01 in 0.17 in 1.09 in (1965)
Month to date precipitation 0.76 3.60  
Year to date precipitation 16.83 29.21  
Sea Level Pressure  
Sea Level Pressure 30.07 in    
Wind  
Wind Speed 9 mph (SSW)    
Max Wind Speed 18 mph    
Max Gust Speed 24 mph    
Visibility 10 miles    
Events      
T = Trace of Precipitation, MM = Missing Value Source: NWS Daily Summary

Daily Weather History Graph

Daily Weather History Graph

Search for Another Location

Airport or City:

Trip Planner

Search our weather history database for the weather conditions in past years. The results will help you decide how hot, cold, wet, or windy it might be!

Date:

Astronomy

Apr. 19, 2014 Rise Set
Actual Time 6:27 AM PDT 8:05 PM PDT
Civil Twilight 5:57 AM PDT 8:35 PM PDT
Nautical Twilight 5:21 AM PDT 9:11 PM PDT
Astronomical Twilight 4:42 AM PDT 9:51 PM PDT
Moon No Moon Rise 9:48 AM PDT (4/19)
Length of Visible Light 14h 37m
Length of Day
13h 37m
Waning Gibbous, 77% of the Moon is Illuminated
Apr 19
Waning Gibbous
Apr 22
Last Quarter
Apr 28
New
May 6
First Quarter
May 14
Full

Hourly Weather History & Observations

Time (PDT) Temp. Windchill Dew Point Humidity Pressure Visibility Wind Dir Wind Speed Gust Speed Precip Events Conditions
12:15 AM 46.4 °F 44.3 °F 46.4 °F 100% 29.92 in 10.0 mi SE 4.6 mph - N/A   Clear
12:35 AM 46.4 °F 43.5 °F 46.4 °F 100% 29.92 in 10.0 mi SSE 5.8 mph - N/A   Clear
12:55 AM 46.4 °F 45.2 °F 44.6 °F 93% 29.92 in 10.0 mi SSE 3.5 mph - N/A   Clear
1:15 AM 46.4 °F 44.3 °F 46.4 °F 100% 29.93 in 10.0 mi South 4.6 mph - N/A   Partly Cloudy
1:35 AM 46.4 °F 43.5 °F 46.4 °F 100% 29.94 in 10.0 mi South 5.8 mph - N/A   Mostly Cloudy
1:55 AM 48.2 °F - 46.4 °F 93% 29.93 in 10.0 mi SSE 6.9 mph - N/A   Overcast
2:15 AM 48.2 °F - 46.4 °F 93% 29.92 in 10.0 mi SSE 6.9 mph - N/A   Overcast
2:35 AM 48.2 °F - 46.4 °F 93% 29.92 in 10.0 mi SSE 5.8 mph - N/A   Overcast
2:55 AM 48.2 °F - 48.2 °F 100% 29.92 in 10.0 mi South 5.8 mph - N/A   Overcast
3:15 AM 48.2 °F - 48.2 °F 100% 29.91 in 10.0 mi South 3.5 mph - N/A   Overcast
3:35 AM 46.4 °F 44.3 °F 46.4 °F 100% 29.91 in 10.0 mi South 4.6 mph - N/A   Scattered Clouds
3:55 AM 46.4 °F 44.3 °F 46.4 °F 100% 29.92 in 10.0 mi South 4.6 mph - N/A   Mostly Cloudy
4:15 AM 46.4 °F 43.5 °F 46.4 °F 100% 29.92 in 10.0 mi South 5.8 mph - N/A   Overcast
4:35 AM 46.4 °F 43.5 °F 44.6 °F 93% 29.92 in 10.0 mi South 5.8 mph - N/A   Overcast
4:55 AM 46.4 °F 42.9 °F 44.6 °F 93% 29.91 in 10.0 mi SSE 6.9 mph - N/A   Mostly Cloudy
5:15 AM 44.6 °F 42.2 °F 44.6 °F 100% 29.91 in 10.0 mi SSE 4.6 mph - N/A   Mostly Cloudy
5:35 AM 44.6 °F 42.2 °F 42.8 °F 93% 29.91 in 10.0 mi South 4.6 mph - N/A   Scattered Clouds
5:55 AM 44.6 °F 42.2 °F 44.6 °F 100% 29.90 in 10.0 mi South 4.6 mph - N/A   Mostly Cloudy
6:15 AM 44.6 °F 42.2 °F 42.8 °F 93% 29.90 in 10.0 mi South 4.6 mph - N/A   Mostly Cloudy
6:35 AM 44.6 °F 41.4 °F 44.6 °F 100% 29.90 in 10.0 mi SE 5.8 mph - N/A   Mostly Cloudy
6:55 AM 46.4 °F 42.4 °F 46.4 °F 100% 29.90 in 10.0 mi ESE 8.1 mph - N/A   Overcast
7:15 AM 46.4 °F 41.5 °F 46.4 °F 100% 29.90 in 10.0 mi SE 10.4 mph - N/A   Overcast
7:35 AM 46.4 °F 44.3 °F 44.6 °F 93% 29.92 in 10.0 mi SSE 4.6 mph - N/A   Overcast
7:55 AM 46.4 °F 43.5 °F 46.4 °F 100% 29.92 in 10.0 mi SE 5.8 mph - N/A   Overcast
8:15 AM 46.4 °F 41.9 °F 46.4 °F 100% 29.91 in 10.0 mi SE 9.2 mph - N/A   Overcast
8:35 AM 46.4 °F 42.9 °F 44.6 °F 93% 29.92 in 10.0 mi SSE 6.9 mph - N/A   Overcast
8:55 AM 48.2 °F - 44.6 °F 87% 29.93 in 8.0 mi South 8.1 mph - N/A   Overcast
9:15 AM 48.2 °F - 42.8 °F 82% 29.95 in 9.0 mi SSW 10.4 mph - N/A   Overcast
9:35 AM 48.2 °F - 46.4 °F 93% 29.96 in 9.0 mi South 9.2 mph - N/A   Overcast
9:55 AM 48.2 °F - 46.4 °F 93% 29.97 in 10.0 mi South 6.9 mph - N/A   Overcast
10:15 AM 50.0 °F - 46.4 °F 87% 29.99 in 10.0 mi South 9.2 mph 17.3 mph N/A   Overcast
10:35 AM 48.2 °F - 48.2 °F 100% 30.00 in 9.0 mi SSW 8.1 mph - N/A   Overcast
10:55 AM 50.0 °F - 48.2 °F 94% 30.02 in 10.0 mi SSW 12.7 mph 16.1 mph 0.01 in   Overcast
11:15 AM 53.6 °F - 50.0 °F 88% 30.03 in 10.0 mi SSW 13.8 mph 18.4 mph N/A   Overcast
11:35 AM 53.6 °F - 50.0 °F 88% 30.04 in 10.0 mi SSW 9.2 mph 19.6 mph N/A   Mostly Cloudy
11:55 AM 53.6 °F - 50.0 °F 88% 30.06 in 10.0 mi SSW 12.7 mph 21.9 mph N/A   Overcast
12:15 PM 55.4 °F - 51.8 °F 88% 30.07 in 10.0 mi SW 13.8 mph 18.4 mph N/A   Overcast
12:35 PM 55.4 °F - 51.8 °F 88% 30.08 in 10.0 mi SSW 16.1 mph 23.0 mph N/A   Overcast
12:55 PM 55.4 °F - 51.8 °F 88% 30.09 in 10.0 mi SW 17.3 mph 23.0 mph N/A   Overcast
1:15 PM 57.2 °F - 51.8 °F 82% 30.10 in 10.0 mi SW 13.8 mph 24.2 mph N/A   Overcast
1:35 PM 57.2 °F - 51.8 °F 82% 30.11 in 10.0 mi WSW 12.7 mph 20.7 mph N/A   Mostly Cloudy
1:55 PM 57.2 °F - 51.8 °F 82% 30.12 in 10.0 mi SW 18.4 mph 24.2 mph N/A   Mostly Cloudy
2:15 PM 59.0 °F - 51.8 °F 77% 30.13 in 9.0 mi WSW 16.1 mph 21.9 mph N/A   Mostly Cloudy
2:35 PM 59.0 °F - 51.8 °F 77% 30.14 in 9.0 mi WSW 12.7 mph - N/A   Overcast
2:55 PM 59.0 °F - 51.8 °F 77% 30.15 in 9.0 mi WSW 15.0 mph 24.2 mph N/A   Overcast
3:15 PM 59.0 °F - 51.8 °F 77% 30.16 in 9.0 mi SW 13.8 mph 19.6 mph N/A   Mostly Cloudy
3:35 PM 59.0 °F - 51.8 °F 77% 30.17 in 9.0 mi WSW 13.8 mph 20.7 mph N/A   Mostly Cloudy
3:55 PM 57.2 °F - 50.0 °F 77% 30.18 in 9.0 mi WSW 12.7 mph 21.9 mph N/A   Mostly Cloudy
4:15 PM 59.0 °F - 50.0 °F 72% 30.18 in 9.0 mi WSW 12.7 mph - N/A   Mostly Cloudy
4:35 PM 59.0 °F - 48.2 °F 67% 30.19 in 10.0 mi WSW 12.7 mph 19.6 mph N/A   Mostly Cloudy
4:55 PM 59.0 °F - 48.2 °F 67% 30.19 in 10.0 mi SW 12.7 mph 18.4 mph N/A   Scattered Clouds
5:15 PM 57.2 °F - 48.2 °F 72% 30.20 in 9.0 mi WSW 12.7 mph - N/A   Partly Cloudy
5:35 PM 57.2 °F - 48.2 °F 72% 30.21 in 8.0 mi WSW 11.5 mph 18.4 mph N/A   Partly Cloudy
5:55 PM 57.2 °F - 50.0 °F 77% 30.22 in 10.0 mi WSW 10.4 mph - N/A   Mostly Cloudy
6:15 PM 57.2 °F - 50.0 °F 77% 30.22 in 8.0 mi WSW 12.7 mph 18.4 mph N/A   Mostly Cloudy
6:35 PM 55.4 °F - 50.0 °F 82% 30.22 in 9.0 mi WSW 10.4 mph - N/A   Mostly Cloudy
6:55 PM 55.4 °F - 50.0 °F 82% 30.23 in 9.0 mi WSW 11.5 mph - N/A   Mostly Cloudy
7:15 PM 55.4 °F - 48.2 °F 77% 30.22 in 9.0 mi WSW 10.4 mph - N/A   Mostly Cloudy
7:35 PM 53.6 °F - 48.2 °F 82% 30.23 in 10.0 mi WSW 8.1 mph - N/A   Partly Cloudy
7:55 PM 53.6 °F - 50.0 °F 88% 30.23 in 8.0 mi SW 6.9 mph - N/A   Mostly Cloudy
8:15 PM 53.6 °F - 50.0 °F 88% 30.24 in 8.0 mi SW 8.1 mph - N/A   Overcast
8:35 PM 53.6 °F - 50.0 °F 88% 30.24 in 9.0 mi SW 5.8 mph - N/A   Overcast
8:55 PM 51.8 °F - 50.0 °F 94% 30.25 in 10.0 mi South 3.5 mph - N/A   Mostly Cloudy
9:15 PM 51.8 °F - 48.2 °F 88% 30.26 in 10.0 mi South 3.5 mph - N/A   Partly Cloudy
9:35 PM 50.0 °F - 48.2 °F 94% 30.26 in 10.0 mi South 4.6 mph - N/A   Partly Cloudy
9:55 PM 48.2 °F - 48.2 °F 100% 30.27 in 10.0 mi SSE 4.6 mph - N/A   Clear
10:15 PM 48.2 °F - 48.2 °F 100% 30.27 in 10.0 mi South 3.5 mph - N/A   Clear
10:35 PM 50.0 °F - 48.2 °F 94% 30.27 in 10.0 mi Calm Calm - N/A   Clear
10:55 PM 46.4 °F 44.3 °F 46.4 °F 100% 30.28 in 9.0 mi SSE 4.6 mph - N/A   Clear
11:15 PM 46.4 °F - 46.4 °F 100% 30.28 in 8.0 mi Calm Calm - N/A   Clear
11:35 PM 48.2 °F - 48.2 °F 100% 30.28 in 8.0 mi SE 4.6 mph - N/A   Clear
11:55 PM 46.4 °F 42.9 °F 46.4 °F 100% 30.29 in 7.0 mi SE 6.9 mph - N/A   Clear